createdAt,value
2019-06-09T00:00:02.732Z,46
2019-06-09T00:01:44.696Z,47
2019-06-09T00:03:00.709Z,47
2019-06-09T00:04:19.803Z,47
2019-06-09T00:05:29.828Z,47
2019-06-09T00:06:43.024Z,47
2019-06-09T00:07:48.456Z,47
2019-06-09T00:09:04.814Z,47
2019-06-09T00:10:28.746Z,47
2019-06-09T00:11:31.993Z,47
2019-06-09T00:12:47.220Z,47
2019-06-09T00:13:53.835Z,47
2019-06-09T00:15:12.441Z,47
2019-06-09T00:16:24.106Z,47
2019-06-09T00:17:30.886Z,48
2019-06-09T00:18:41.770Z,48
2019-06-09T00:19:48.839Z,48
2019-06-09T00:20:55.012Z,48
2019-06-09T00:22:17.713Z,48
2019-06-09T00:23:29.375Z,48
2019-06-09T00:24:34.003Z,48
2019-06-09T00:25:39.493Z,48
2019-06-09T00:26:44.479Z,48
2019-06-09T00:27:49.106Z,48
2019-06-09T00:28:58.629Z,48
2019-06-09T00:30:31.131Z,48
2019-06-09T00:31:53.361Z,49
2019-06-09T00:32:59.694Z,49
2019-06-09T00:34:17.437Z,49
2019-06-09T00:35:21.776Z,49
2019-06-09T00:36:23.856Z,49
2019-06-09T00:37:28.188Z,49
2019-06-09T00:38:30.337Z,49
2019-06-09T00:39:32.443Z,49
2019-06-09T00:40:34.535Z,49
2019-06-09T00:41:38.123Z,49
2019-06-09T00:42:40.898Z,49
2019-06-09T00:43:42.993Z,49
2019-06-09T00:44:47.818Z,50
2019-06-09T00:45:49.977Z,49
2019-06-09T00:46:52.054Z,49
2019-06-09T00:47:54.420Z,49
2019-06-09T00:48:58.192Z,50
2019-06-09T00:50:00.334Z,50
2019-06-09T00:51:02.448Z,50
2019-06-09T00:52:22.248Z,50
2019-06-09T00:53:24.333Z,50
2019-06-09T00:54:29.613Z,50
2019-06-09T00:55:31.732Z,50
2019-06-09T00:56:33.816Z,50
2019-06-09T00:57:38.738Z,51
2019-06-09T00:58:40.869Z,50
2019-06-09T00:59:42.968Z,50
2019-06-09T01:00:47.725Z,50
2019-06-09T01:02:22.713Z,50
2019-06-09T01:03:25.397Z,50
2019-06-09T01:04:29.541Z,50
2019-06-09T01:05:31.673Z,50
2019-06-09T01:06:33.765Z,50
2019-06-09T01:07:38.412Z,50
2019-06-09T01:08:40.950Z,51
2019-06-09T01:09:43.045Z,51
2019-06-09T01:10:45.198Z,51
2019-06-09T01:11:49.931Z,51
2019-06-09T01:12:52.007Z,51
2019-06-09T01:13:54.100Z,51
2019-06-09T01:14:58.350Z,51
2019-06-09T01:16:00.510Z,51
2019-06-09T01:17:02.578Z,51
2019-06-09T01:18:04.715Z,51
2019-06-09T01:19:13.882Z,51
2019-06-09T01:20:23.164Z,51
2019-06-09T01:21:27.485Z,51
2019-06-09T01:22:29.989Z,51
2019-06-09T01:23:32.134Z,51
2019-06-09T01:24:34.211Z,51
2019-06-09T01:25:38.587Z,51
2019-06-09T01:26:40.944Z,51
2019-06-09T01:27:43.404Z,51
2019-06-09T01:28:45.486Z,52
2019-06-09T01:29:49.901Z,52
2019-06-09T01:30:52.317Z,52
2019-06-09T01:31:54.403Z,52
2019-06-09T01:32:58.579Z,52
2019-06-09T01:34:00.655Z,51
2019-06-09T01:35:02.747Z,52
2019-06-09T01:36:04.844Z,51
2019-06-09T01:37:10.123Z,51
2019-06-09T01:38:14.273Z,51
2019-06-09T01:39:23.370Z,51
2019-06-09T01:40:28.224Z,52
2019-06-09T01:41:30.744Z,52
2019-06-09T01:42:33.214Z,51
2019-06-09T01:43:35.350Z,52
2019-06-09T01:44:40.019Z,51
2019-06-09T01:45:42.173Z,51
2019-06-09T01:46:44.215Z,52
2019-06-09T01:47:50.467Z,52
2019-06-09T01:48:52.566Z,52
2019-06-09T01:49:56.999Z,52
2019-06-09T01:50:59.169Z,52
2019-06-09T01:52:01.259Z,52
2019-06-09T01:53:03.398Z,52
2019-06-09T01:54:07.819Z,52
2019-06-09T01:55:11.668Z,52
2019-06-09T01:56:19.935Z,52
2019-06-09T01:57:23.823Z,52
2019-06-09T01:58:28.381Z,52
2019-06-09T01:59:30.479Z,53
2019-06-09T02:00:33.296Z,53
2019-06-09T02:01:38.845Z,52
2019-06-09T02:02:53.807Z,52
2019-06-09T02:03:58.089Z,52
2019-06-09T02:05:00.139Z,52
2019-06-09T02:06:02.286Z,52
2019-06-09T02:07:04.714Z,53
2019-06-09T02:08:08.366Z,53
2019-06-09T02:09:12.119Z,53
2019-06-09T02:10:18.980Z,53
2019-06-09T02:11:27.905Z,53
2019-06-09T02:12:30.021Z,53
2019-06-09T02:13:32.440Z,53
2019-06-09T02:14:34.612Z,53
2019-06-09T02:15:38.741Z,52
2019-06-09T02:16:40.817Z,53
2019-06-09T02:17:42.943Z,53
2019-06-09T02:18:45.025Z,53
2019-06-09T02:19:48.894Z,53
2019-06-09T02:20:51.041Z,53
2019-06-09T02:21:53.130Z,53
2019-06-09T02:22:57.972Z,53
2019-06-09T02:24:00.041Z,53
2019-06-09T02:25:02.435Z,53
2019-06-09T02:26:04.516Z,53
2019-06-09T02:27:09.017Z,54
2019-06-09T02:28:11.160Z,54
2019-06-09T02:29:13.240Z,53
2019-06-09T02:30:44.855Z,53
2019-06-09T02:31:52.146Z,54
2019-06-09T02:33:54.753Z,54
2019-06-09T02:35:02.077Z,54
2019-06-09T02:36:53.149Z,54
2019-06-09T02:37:56.846Z,54
2019-06-09T02:39:03.462Z,54
2019-06-09T02:40:05.913Z,54
2019-06-09T02:41:08.002Z,54
2019-06-09T02:42:13.983Z,55
2019-06-09T02:43:37.777Z,55
2019-06-09T02:44:44.073Z,55
2019-06-09T02:45:46.463Z,54
2019-06-09T02:46:48.535Z,54
2019-06-09T02:47:54.271Z,54
2019-06-09T02:48:56.349Z,54
2019-06-09T02:49:58.382Z,54
2019-06-09T02:51:04.573Z,55
2019-06-09T02:52:06.997Z,54
2019-06-09T02:53:12.630Z,55
2019-06-09T02:54:14.738Z,55
2019-06-09T02:55:31.962Z,55
2019-06-09T02:56:45.807Z,56
2019-06-09T02:57:48.518Z,55
2019-06-09T02:58:52.760Z,55
2019-06-09T02:59:55.519Z,55
2019-06-09T03:01:01.314Z,56
2019-06-09T03:02:05.293Z,56
2019-06-09T03:04:16.662Z,56
2019-06-09T03:05:43.895Z,56
2019-06-09T03:06:46.868Z,56
2019-06-09T03:07:53.026Z,56
2019-06-09T03:08:55.404Z,55
2019-06-09T03:09:57.768Z,56
2019-06-09T03:11:04.139Z,56
2019-06-09T03:12:06.206Z,56
2019-06-09T03:13:12.394Z,56
2019-06-09T03:14:14.805Z,57
2019-06-09T03:15:16.942Z,56
2019-06-09T03:16:40.929Z,56
2019-06-09T03:17:47.858Z,56
2019-06-09T03:18:57.232Z,56
2019-06-09T03:20:03.787Z,56
2019-06-09T03:21:06.874Z,56
2019-06-09T03:22:12.907Z,56
2019-06-09T03:23:15.057Z,56
2019-06-09T03:24:17.520Z,56
2019-06-09T03:25:43.008Z,56
2019-06-09T03:26:46.675Z,56
2019-06-09T03:27:52.646Z,56
2019-06-09T03:28:55.006Z,56
2019-06-09T03:29:57.491Z,57
2019-06-09T03:32:37.627Z,56
2019-06-09T03:38:17.558Z,56
2019-06-09T03:39:53.565Z,56
2019-06-09T03:40:55.644Z,56
2019-06-09T03:41:58.318Z,56
2019-06-09T03:43:04.476Z,56
2019-06-09T03:44:06.824Z,56
2019-06-09T03:45:08.857Z,56
2019-06-09T03:46:12.837Z,56
2019-06-09T03:47:14.931Z,56
2019-06-09T03:48:17.304Z,56
2019-06-09T03:49:46.242Z,56
2019-06-09T03:50:57.800Z,57
2019-06-09T03:52:04.336Z,56
2019-06-09T03:53:06.798Z,56
2019-06-09T03:54:13.779Z,56
2019-06-09T03:55:48.142Z,56
2019-06-09T03:56:54.505Z,57
2019-06-09T03:57:56.896Z,57
2019-06-09T03:59:02.807Z,56
2019-06-09T04:00:47.232Z,56
2019-06-09T04:01:57.379Z,56
2019-06-09T04:03:04.488Z,56
2019-06-09T04:04:06.893Z,57
2019-06-09T04:05:12.905Z,57
2019-06-09T04:07:05.321Z,57
2019-06-09T04:08:08.334Z,56
2019-06-09T04:09:14.092Z,56
2019-06-09T04:10:16.243Z,56
2019-06-09T04:11:29.156Z,56
2019-06-09T04:12:46.591Z,56
2019-06-09T04:13:48.670Z,56
2019-06-09T04:14:54.608Z,56
2019-06-09T04:15:57.131Z,57
2019-06-09T04:17:07.496Z,57
2019-06-09T04:18:12.565Z,56
2019-06-09T04:19:14.960Z,56
2019-06-09T04:20:17.421Z,57
2019-06-09T04:21:26.599Z,57
2019-06-09T04:22:55.212Z,57
2019-06-09T04:24:01.856Z,56
2019-06-09T04:25:04.267Z,57
2019-06-09T04:26:06.763Z,57
2019-06-09T04:27:12.152Z,57
2019-06-09T04:28:14.412Z,57
2019-06-09T04:29:17.826Z,57
2019-06-09T04:30:49.614Z,57
2019-06-09T04:31:57.494Z,56
2019-06-09T04:33:03.302Z,57
2019-06-09T04:34:06.347Z,56
2019-06-09T04:35:12.874Z,57
2019-06-09T04:37:07.124Z,56
2019-06-09T04:38:12.840Z,57
2019-06-09T04:39:15.525Z,57
2019-06-09T04:40:18.327Z,56
2019-06-09T04:41:41.036Z,56
2019-06-09T04:42:52.114Z,56
2019-06-09T04:43:55.589Z,56
2019-06-09T04:44:58.251Z,56
2019-06-09T04:46:03.283Z,56
2019-06-09T04:47:05.705Z,56
2019-06-09T04:48:08.241Z,56
2019-06-09T04:49:14.287Z,56
2019-06-09T04:50:16.726Z,56
2019-06-09T04:51:22.164Z,56
2019-06-09T04:52:30.981Z,55
2019-06-09T04:53:48.428Z,56
2019-06-09T04:54:54.719Z,56
2019-06-09T04:55:56.803Z,55
2019-06-09T04:57:03.170Z,56
2019-06-09T04:58:05.551Z,56
2019-06-09T04:59:07.937Z,56
2019-06-09T05:00:23.823Z,55
2019-06-09T05:01:52.525Z,55
2019-06-09T05:02:56.502Z,55
2019-06-09T05:04:02.015Z,55
2019-06-09T05:05:04.512Z,55
2019-06-09T05:06:06.601Z,55
2019-06-09T05:08:07.313Z,56
2019-06-09T05:09:15.644Z,55
2019-06-09T05:10:18.041Z,55
2019-06-09T05:11:24.348Z,55
2019-06-09T05:12:39.859Z,55
2019-06-09T05:13:53.962Z,55
2019-06-09T05:14:56.339Z,55
2019-06-09T05:15:58.784Z,55
2019-06-09T05:17:04.741Z,55
2019-06-09T05:18:07.281Z,56
2019-06-09T05:19:13.493Z,55
2019-06-09T05:20:16.323Z,55
2019-06-09T05:21:22.223Z,54
2019-06-09T05:22:24.965Z,54
2019-06-09T05:23:27.075Z,54
2019-06-09T05:24:54.934Z,53
2019-06-09T05:25:57.408Z,55
2019-06-09T05:27:03.474Z,55
2019-06-09T05:28:05.552Z,55
2019-06-09T05:29:07.658Z,55
2019-06-09T05:30:14.144Z,54
2019-06-09T05:31:16.237Z,54
2019-06-09T05:32:18.338Z,54
2019-06-09T05:33:22.667Z,54
2019-06-09T05:34:25.122Z,54
2019-06-09T05:35:27.206Z,54
2019-06-09T05:37:26.773Z,54
2019-06-09T05:38:56.627Z,53
2019-06-09T05:40:06.329Z,54
2019-06-09T05:41:11.154Z,54
2019-06-09T05:42:13.941Z,53
2019-06-09T05:43:16.104Z,53
2019-06-09T05:44:18.178Z,53
2019-06-09T05:45:21.666Z,53
2019-06-09T05:46:23.749Z,53
2019-06-09T05:47:25.840Z,53
2019-06-09T05:48:28.007Z,53
2019-06-09T05:49:41.842Z,53
2019-06-09T05:50:45.158Z,53
2019-06-09T05:51:47.267Z,53
2019-06-09T05:52:52.107Z,53
2019-06-09T05:53:54.227Z,52
2019-06-09T05:54:56.382Z,53
2019-06-09T05:56:01.355Z,53
2019-06-09T05:57:03.504Z,52
2019-06-09T05:58:05.926Z,52
2019-06-09T05:59:08.017Z,53
2019-06-09T06:00:12.945Z,52
2019-06-09T06:01:15.305Z,51
2019-06-09T06:02:17.789Z,52
2019-06-09T06:03:22.609Z,51
2019-06-09T06:04:24.731Z,52
2019-06-09T06:05:26.884Z,52
2019-06-09T06:06:33.873Z,50
2019-06-09T06:07:38.054Z,51
2019-06-09T06:08:44.784Z,50
2019-06-09T06:09:46.961Z,51
2019-06-09T06:10:51.456Z,51
2019-06-09T06:11:53.850Z,51
2019-06-09T06:12:56.397Z,51
2019-06-09T06:13:58.482Z,50
2019-06-09T06:15:02.737Z,51
2019-06-09T06:16:04.868Z,51
2019-06-09T06:17:06.961Z,50
2019-06-09T06:18:11.846Z,50
2019-06-09T06:19:13.973Z,51
2019-06-09T06:20:16.517Z,50
2019-06-09T06:21:21.689Z,50
2019-06-09T06:22:23.843Z,50
2019-06-09T06:23:26.214Z,50
2019-06-09T06:24:31.024Z,49
2019-06-09T06:25:45.322Z,49
2019-06-09T06:26:52.698Z,49
2019-06-09T06:27:54.781Z,49
2019-06-09T06:28:57.181Z,50
2019-06-09T06:30:01.759Z,49
2019-06-09T06:31:04.175Z,50
2019-06-09T06:32:06.347Z,50
2019-06-09T06:33:10.984Z,49
2019-06-09T06:34:13.469Z,48
2019-06-09T06:35:15.923Z,48
2019-06-09T06:36:17.956Z,48
2019-06-09T06:37:56.103Z,49
2019-06-09T06:39:04.239Z,48
2019-06-09T06:40:06.719Z,48
2019-06-09T06:41:08.861Z,48
2019-06-09T06:42:12.517Z,48
2019-06-09T06:43:14.603Z,48
2019-06-09T06:44:16.677Z,48
2019-06-09T06:45:21.644Z,49
2019-06-09T06:46:23.717Z,48
2019-06-09T06:47:25.860Z,48
2019-06-09T06:48:28.235Z,47
2019-06-09T06:49:32.854Z,48
2019-06-09T06:50:36.265Z,48
2019-06-09T06:51:47.339Z,48
2019-06-09T06:52:52.584Z,46
2019-06-09T06:53:54.648Z,47
2019-06-09T06:54:56.791Z,47
2019-06-09T06:56:01.703Z,47
2019-06-09T06:57:03.995Z,47
2019-06-09T06:58:06.375Z,47
2019-06-09T06:59:10.845Z,46
2019-06-09T07:00:13.868Z,46
2019-06-09T07:01:15.953Z,47
2019-06-09T07:02:18.120Z,46
2019-06-09T07:03:21.866Z,47
2019-06-09T07:04:24.016Z,47
2019-06-09T07:05:26.116Z,46
2019-06-09T07:06:31.348Z,46
2019-06-09T07:08:12.143Z,46
2019-06-09T07:09:14.587Z,46
2019-06-09T07:10:16.656Z,45
2019-06-09T07:11:18.722Z,45
2019-06-09T07:12:23.266Z,46
2019-06-09T07:13:25.887Z,46
2019-06-09T07:14:28.625Z,46
2019-06-09T07:15:33.324Z,46
2019-06-09T07:16:35.693Z,46
2019-06-09T07:17:37.826Z,45
2019-06-09T07:18:51.938Z,45
2019-06-09T07:19:55.479Z,45
2019-06-09T07:20:57.575Z,45
2019-06-09T07:22:02.370Z,45
2019-06-09T07:23:04.399Z,46
2019-06-09T07:24:06.793Z,45
2019-06-09T07:25:08.963Z,45
2019-06-09T07:26:12.584Z,45
2019-06-09T07:27:15.060Z,44
2019-06-09T07:28:17.174Z,44
2019-06-09T07:29:21.749Z,44
2019-06-09T07:30:23.868Z,44
2019-06-09T07:31:25.966Z,45
2019-06-09T07:32:30.598Z,46
2019-06-09T07:33:33.926Z,43
2019-06-09T07:34:36.791Z,43
2019-06-09T07:35:46.396Z,43
2019-06-09T07:36:58.096Z,43
2019-06-09T07:38:32.534Z,43
2019-06-09T07:40:43.519Z,43
2019-06-09T07:41:55.177Z,43
2019-06-09T07:42:57.415Z,43
2019-06-09T07:44:02.349Z,42
2019-06-09T07:45:04.884Z,43
2019-06-09T07:46:07.090Z,42
2019-06-09T07:47:12.550Z,43
2019-06-09T07:48:15.002Z,43
2019-06-09T07:49:17.209Z,43
2019-06-09T07:50:21.986Z,43
2019-06-09T07:51:24.577Z,42
2019-06-09T07:52:26.836Z,42
2019-06-09T07:53:32.201Z,41
2019-06-09T07:54:34.604Z,42
2019-06-09T07:55:36.779Z,43
2019-06-09T07:56:45.356Z,43
2019-06-09T07:57:54.392Z,42
2019-06-09T07:58:56.564Z,45
2019-06-09T07:59:58.783Z,43
2019-06-09T08:01:04.128Z,42
2019-06-09T08:02:06.772Z,42
2019-06-09T08:03:11.319Z,43
2019-06-09T08:04:13.524Z,43
2019-06-09T08:05:15.765Z,43
2019-06-09T08:06:17.932Z,42
2019-06-09T08:07:22.292Z,43
2019-06-09T08:08:58.611Z,43
2019-06-09T08:10:02.609Z,43
2019-06-09T08:11:04.814Z,44
2019-06-09T08:12:07.066Z,45
2019-06-09T08:13:12.098Z,43
2019-06-09T08:14:14.290Z,43
2019-06-09T08:15:16.482Z,43
2019-06-09T08:16:21.838Z,43
2019-06-09T08:17:24.175Z,42
2019-06-09T08:18:26.371Z,42
2019-06-09T08:19:28.951Z,42
2019-06-09T08:20:34.018Z,42
2019-06-09T08:21:36.186Z,42
2019-06-09T08:22:38.370Z,42
2019-06-09T08:23:45.008Z,42
2019-06-09T08:24:54.778Z,42
2019-06-09T08:25:57.639Z,43
2019-06-09T08:27:02.905Z,42
2019-06-09T08:28:05.417Z,42
2019-06-09T08:29:07.812Z,43
2019-06-09T08:30:14.593Z,42
2019-06-09T08:31:17.136Z,42
2019-06-09T08:32:21.777Z,43
2019-06-09T08:33:23.960Z,42
2019-06-09T08:34:26.529Z,41
2019-06-09T08:35:31.464Z,41
2019-06-09T08:36:33.807Z,41
2019-06-09T08:37:36.032Z,41
2019-06-09T08:39:15.788Z,40
2019-06-09T08:40:18.222Z,41
2019-06-09T08:41:22.862Z,41
2019-06-09T08:42:25.137Z,43
2019-06-09T08:43:27.311Z,41
2019-06-09T08:44:32.909Z,40
2019-06-09T08:45:35.116Z,40
2019-06-09T08:46:37.327Z,40
2019-06-09T08:47:42.070Z,40
2019-06-09T08:48:51.153Z,40
2019-06-09T08:50:00.577Z,40
2019-06-09T08:51:03.269Z,40
2019-06-09T08:52:05.534Z,41
2019-06-09T08:53:07.737Z,38
2019-06-09T08:54:12.231Z,39
2019-06-09T08:55:14.441Z,38
2019-06-09T08:56:16.642Z,39
2019-06-09T08:57:21.781Z,39
2019-06-09T08:58:23.930Z,38
2019-06-09T08:59:26.542Z,38
2019-06-09T09:00:28.742Z,38
2019-06-09T09:01:33.737Z,39
2019-06-09T09:02:36.020Z,38
2019-06-09T09:03:38.193Z,40
2019-06-09T09:04:43.888Z,41
2019-06-09T09:05:51.396Z,39
2019-06-09T09:06:56.619Z,40
2019-06-09T09:07:58.823Z,41
2019-06-09T09:09:34.191Z,38
2019-06-09T09:10:36.350Z,37
2019-06-09T09:11:38.537Z,38
2019-06-09T09:12:41.698Z,37
2019-06-09T09:13:48.301Z,36
2019-06-09T09:15:03.478Z,37
2019-06-09T09:16:05.926Z,37
2019-06-09T09:17:08.182Z,38
2019-06-09T09:18:12.367Z,37
2019-06-09T09:19:14.552Z,37
2019-06-09T09:20:16.772Z,37
2019-06-09T09:21:22.252Z,37
2019-06-09T09:22:24.621Z,36
2019-06-09T09:23:26.864Z,36
2019-06-09T09:25:26.001Z,35
2019-06-09T09:26:31.391Z,35
2019-06-09T09:27:34.073Z,34
2019-06-09T09:28:36.666Z,35
2019-06-09T09:29:41.324Z,36
2019-06-09T09:30:45.023Z,35
2019-06-09T09:32:02.009Z,35
2019-06-09T09:33:06.556Z,35
2019-06-09T09:34:12.132Z,34
2019-06-09T09:35:14.373Z,34
2019-06-09T09:36:16.461Z,34
2019-06-09T09:37:21.878Z,33
2019-06-09T09:38:25.378Z,33
2019-06-09T09:39:36.836Z,32
2019-06-09T09:40:41.790Z,32
2019-06-09T09:41:45.316Z,32
2019-06-09T09:42:58.144Z,32
2019-06-09T09:44:03.022Z,32
2019-06-09T09:45:05.851Z,32
2019-06-09T09:46:11.266Z,33
2019-06-09T09:47:14.110Z,33
2019-06-09T09:48:16.975Z,32
2019-06-09T09:49:21.981Z,31
2019-06-09T09:50:25.224Z,31
2019-06-09T09:51:27.823Z,31
2019-06-09T09:52:33.529Z,31
2019-06-09T09:53:36.089Z,32
2019-06-09T09:54:41.883Z,32
2019-06-09T09:55:44.225Z,31
2019-06-09T09:56:48.278Z,31
2019-06-09T09:58:00.892Z,31
2019-06-09T09:59:04.103Z,31
2019-06-09T10:00:14.947Z,31
2019-06-09T10:01:17.403Z,30
2019-06-09T10:02:22.167Z,31
2019-06-09T10:03:24.975Z,31
2019-06-09T10:04:27.408Z,30
2019-06-09T10:05:32.326Z,31
2019-06-09T10:06:34.861Z,28
2019-06-09T10:07:37.447Z,29
2019-06-09T10:08:42.512Z,29
2019-06-09T10:10:05.687Z,29
2019-06-09T10:11:10.544Z,29
2019-06-09T10:12:13.592Z,28
2019-06-09T10:13:16.043Z,29
2019-06-09T10:14:22.567Z,28
2019-06-09T10:15:25.336Z,27
2019-06-09T10:16:27.772Z,27
2019-06-09T10:17:32.292Z,28
2019-06-09T10:18:35.148Z,28
2019-06-09T10:19:37.618Z,26
2019-06-09T10:20:42.640Z,26
2019-06-09T10:21:45.157Z,26
2019-06-09T10:22:49.843Z,26
2019-06-09T10:24:01.321Z,27
2019-06-09T10:25:24.562Z,27
2019-06-09T10:26:31.571Z,26
2019-06-09T10:27:34.634Z,27
2019-06-09T10:28:36.963Z,27
2019-06-09T10:29:41.626Z,27
2019-06-09T10:30:44.312Z,27
2019-06-09T10:31:52.188Z,26
2019-06-09T10:33:13.327Z,26
2019-06-09T10:34:15.676Z,27
2019-06-09T10:35:18.135Z,25
2019-06-09T10:36:22.695Z,26
2019-06-09T10:37:25.611Z,26
2019-06-09T10:38:27.904Z,25
2019-06-09T10:39:34.865Z,25
2019-06-09T10:40:37.463Z,25
2019-06-09T10:41:43.659Z,25
2019-06-09T10:42:46.421Z,27
2019-06-09T10:43:58.794Z,26
2019-06-09T10:45:06.425Z,24
2019-06-09T10:46:08.851Z,24
2019-06-09T10:47:15.668Z,24
2019-06-09T10:48:17.994Z,24
2019-06-09T10:49:22.305Z,25
2019-06-09T10:50:24.685Z,25
2019-06-09T10:51:27.392Z,25
2019-06-09T10:52:29.897Z,25
2019-06-09T10:53:35.298Z,27
2019-06-09T10:54:38.113Z,23
2019-06-09T10:55:42.617Z,23
2019-06-09T10:56:45.012Z,23
2019-06-09T10:57:47.068Z,24
2019-06-09T10:58:57.778Z,23
2019-06-09T11:00:35.736Z,23
2019-06-09T11:01:38.121Z,23
2019-06-09T11:02:43.262Z,23
2019-06-09T11:03:45.302Z,23
2019-06-09T11:04:47.465Z,23
2019-06-09T11:05:58.137Z,24
2019-06-09T11:07:05.588Z,25
2019-06-09T11:08:08.263Z,26
2019-06-09T11:09:13.632Z,27
2019-06-09T11:10:36.471Z,26
2019-06-09T11:11:38.831Z,27
2019-06-09T11:12:43.786Z,26
2019-06-09T11:13:45.875Z,24
2019-06-09T11:14:48.055Z,24
2019-06-09T11:15:58.165Z,24
2019-06-09T11:17:07.963Z,24
2019-06-09T11:18:12.565Z,23
2019-06-09T11:19:15.810Z,25
2019-06-09T11:20:17.929Z,26
2019-06-09T11:21:22.745Z,24
2019-06-09T11:22:24.916Z,24
2019-06-09T11:23:27.592Z,23
2019-06-09T11:24:32.349Z,23
2019-06-09T11:25:34.436Z,22
2019-06-09T11:26:36.587Z,23
2019-06-09T11:27:38.721Z,22
2019-06-09T11:28:42.514Z,23
2019-06-09T11:29:44.760Z,23
2019-06-09T11:30:47.205Z,22
2019-06-09T11:31:57.024Z,22
2019-06-09T11:33:02.665Z,21
2019-06-09T11:34:07.263Z,21
2019-06-09T11:35:12.098Z,22
2019-06-09T11:36:14.385Z,22
2019-06-09T11:37:16.882Z,22
2019-06-09T11:38:22.333Z,24
2019-06-09T11:39:24.843Z,22
2019-06-09T11:40:44.845Z,24
2019-06-09T11:41:46.995Z,24
2019-06-09T11:42:54.724Z,23
2019-06-09T11:44:05.635Z,22
2019-06-09T11:45:08.131Z,21
2019-06-09T11:46:12.361Z,21
2019-06-09T11:47:14.604Z,21
2019-06-09T11:48:16.797Z,22
2019-06-09T11:49:23.430Z,21
2019-06-09T11:50:25.989Z,23
2019-06-09T11:51:28.298Z,21
2019-06-09T11:52:30.861Z,21
2019-06-09T11:53:33.309Z,21
2019-06-09T11:54:35.599Z,21
2019-06-09T11:55:37.797Z,22
2019-06-09T11:56:42.664Z,21
2019-06-09T11:57:44.863Z,23
2019-06-09T11:58:47.687Z,24
2019-06-09T11:59:53.321Z,21
2019-06-09T12:00:58.022Z,22
2019-06-09T12:02:07.990Z,23
2019-06-09T12:03:10.723Z,21
2019-06-09T12:04:12.955Z,21
2019-06-09T12:05:15.630Z,23
2019-06-09T12:06:17.835Z,23
2019-06-09T12:07:23.368Z,20
2019-06-09T12:08:25.692Z,22
2019-06-09T12:09:27.900Z,22
2019-06-09T12:10:30.464Z,21
2019-06-09T12:11:33.616Z,21
2019-06-09T12:12:35.884Z,21
2019-06-09T12:13:38.403Z,22
2019-06-09T12:14:42.820Z,22
2019-06-09T12:15:45.021Z,23
2019-06-09T12:16:47.283Z,23
2019-06-09T12:17:53.875Z,23
2019-06-09T12:19:00.784Z,21
2019-06-09T12:20:14.038Z,22
2019-06-09T12:21:16.336Z,21
2019-06-09T12:22:21.233Z,20
2019-06-09T12:23:23.430Z,20
2019-06-09T12:24:26.147Z,22
2019-06-09T12:25:29.117Z,21
2019-06-09T12:26:32.943Z,22
2019-06-09T12:27:35.191Z,21
2019-06-09T12:28:37.792Z,21
2019-06-09T12:29:42.915Z,22
2019-06-09T12:30:45.154Z,21
2019-06-09T12:31:47.448Z,21
2019-06-09T12:32:53.057Z,20
2019-06-09T12:33:58.210Z,19
2019-06-09T12:35:12.307Z,20
2019-06-09T12:36:15.046Z,22
2019-06-09T12:37:21.770Z,21
2019-06-09T12:38:24.331Z,20
2019-06-09T12:39:26.595Z,20
2019-06-09T12:40:31.231Z,21
2019-06-09T12:41:36.501Z,21
2019-06-09T12:42:41.214Z,20
2019-06-09T12:43:43.506Z,21
2019-06-09T12:44:45.793Z,19
2019-06-09T12:45:48.022Z,19
2019-06-09T12:46:52.136Z,20
2019-06-09T12:47:54.469Z,20
2019-06-09T12:49:04.932Z,21
2019-06-09T12:50:13.006Z,22
2019-06-09T12:51:15.661Z,21
2019-06-09T12:52:17.902Z,20
2019-06-09T12:53:23.258Z,21
2019-06-09T12:54:26.708Z,19
2019-06-09T12:55:52.770Z,20
2019-06-09T12:56:54.981Z,20
2019-06-09T12:58:01.569Z,20
2019-06-09T12:59:11.881Z,19
2019-06-09T13:00:26.966Z,21
2019-06-09T13:01:31.932Z,23
2019-06-09T13:02:34.181Z,20
2019-06-09T13:03:36.429Z,20
2019-06-09T13:04:41.103Z,20
2019-06-09T13:05:44.035Z,20
2019-06-09T13:06:46.388Z,20
2019-06-09T13:07:51.456Z,20
2019-06-09T13:08:53.778Z,20
2019-06-09T13:09:57.872Z,20
2019-06-09T13:11:42.901Z,19
2019-06-09T13:12:45.819Z,18
2019-06-09T13:13:48.011Z,18
2019-06-09T13:14:52.290Z,18
2019-06-09T13:15:54.533Z,19
2019-06-09T13:16:57.127Z,19
2019-06-09T13:18:06.079Z,18
2019-06-09T13:19:14.524Z,18
2019-06-09T13:20:24.557Z,18
2019-06-09T13:21:26.906Z,19
2019-06-09T13:22:31.605Z,19
2019-06-09T13:23:34.622Z,21
2019-06-09T13:24:37.718Z,17
2019-06-09T13:25:42.668Z,16
2019-06-09T13:26:45.257Z,17
2019-06-09T13:27:47.463Z,17
2019-06-09T13:28:52.212Z,19
2019-06-09T13:29:55.067Z,17
2019-06-09T13:30:57.496Z,16
2019-06-09T21:34:16.689Z,48
2019-06-09T21:35:21.632Z,47
2019-06-09T21:36:23.951Z,47
2019-06-09T21:37:26.159Z,47
2019-06-09T21:38:33.084Z,47
2019-06-09T21:39:35.280Z,47
2019-06-09T21:40:37.527Z,47
2019-06-09T21:41:45.433Z,47
2019-06-09T21:42:52.271Z,47
2019-06-09T21:43:58.725Z,47
2019-06-09T21:45:01.219Z,47
2019-06-09T21:46:03.461Z,47
2019-06-09T21:47:12.852Z,48
2019-06-09T21:48:16.588Z,48
2019-06-09T21:49:18.794Z,48
2019-06-09T21:50:21.018Z,48
2019-06-09T21:51:23.134Z,48
2019-06-09T21:52:31.757Z,48
2019-06-09T21:53:34.253Z,48
2019-06-09T21:54:36.357Z,48
2019-06-09T21:55:48.598Z,48
2019-06-09T21:56:57.577Z,48
2019-06-09T21:58:01.951Z,48
2019-06-09T21:59:04.067Z,48
2019-06-09T22:00:06.162Z,48
2019-06-09T22:01:08.335Z,48
2019-06-09T22:02:17.214Z,47
2019-06-09T22:03:22.150Z,47
2019-06-09T22:04:24.281Z,47
2019-06-09T22:05:26.810Z,47
2019-06-09T22:06:31.860Z,47
2019-06-09T22:07:34.319Z,47
2019-06-09T22:08:36.922Z,48
2019-06-09T22:09:41.515Z,48
2019-06-09T22:10:43.661Z,48
2019-06-09T22:11:51.537Z,48
2019-06-09T22:12:58.706Z,48
2019-06-09T22:14:00.783Z,48
2019-06-09T22:15:03.110Z,48
2019-06-09T22:16:05.548Z,48
2019-06-09T22:17:21.306Z,48
2019-06-09T22:18:23.749Z,48
2019-06-09T22:19:25.876Z,48
2019-06-09T22:20:28.031Z,48
2019-06-09T22:21:31.686Z,48
2019-06-09T22:22:33.793Z,48
2019-06-09T22:23:35.937Z,49
2019-06-09T22:24:38.014Z,48
2019-06-09T22:25:42.376Z,49
2019-06-09T22:26:44.483Z,49
2019-06-09T22:27:48.469Z,48
2019-06-09T22:28:57.933Z,48
2019-06-09T22:30:02.237Z,48
2019-06-09T22:31:04.704Z,48
2019-06-09T22:32:13.178Z,48
2019-06-09T22:33:15.255Z,48
2019-06-09T22:34:17.325Z,48
2019-06-09T22:35:21.749Z,48
2019-06-09T22:36:23.850Z,48
2019-06-09T22:37:25.939Z,48
2019-06-09T22:38:28.107Z,48
2019-06-09T22:39:32.243Z,49
2019-06-09T22:40:34.411Z,49
2019-06-09T22:41:36.485Z,48
2019-06-09T22:42:38.677Z,49
2019-06-09T22:43:42.538Z,49
2019-06-09T22:44:45.577Z,48
2019-06-09T22:45:50.451Z,48
2019-06-09T22:47:57.056Z,49
2019-06-09T22:49:06.944Z,49
2019-06-09T22:50:11.673Z,49
2019-06-09T22:51:13.772Z,48
2019-06-09T22:52:15.845Z,49
2019-06-09T22:53:18.293Z,48
2019-06-09T22:54:21.666Z,50
2019-06-09T22:55:23.797Z,49
2019-06-09T22:56:25.892Z,49
2019-06-09T22:57:27.969Z,50
2019-06-09T22:58:32.294Z,49
2019-06-09T22:59:34.680Z,49
2019-06-09T23:00:36.823Z,49
2019-06-09T23:01:42.039Z,49
2019-06-09T23:02:44.536Z,49
2019-06-09T23:03:46.575Z,49
2019-06-09T23:04:48.660Z,48
2019-06-09T23:06:06.343Z,48
2019-06-09T23:07:11.704Z,49
2019-06-09T23:08:13.833Z,49
2019-06-09T23:09:15.945Z,49
2019-06-09T23:10:18.074Z,49
2019-06-09T23:11:20.154Z,49
2019-06-09T23:12:22.243Z,50
2019-06-09T23:13:25.094Z,50
2019-06-09T23:14:27.193Z,49
2019-06-09T23:15:31.856Z,49
2019-06-09T23:16:34.290Z,50
2019-06-09T23:17:36.409Z,50
2019-06-09T23:18:41.006Z,50
2019-06-09T23:19:43.478Z,50
2019-06-09T23:20:45.647Z,50
2019-06-09T23:21:48.018Z,50
2019-06-09T23:22:57.230Z,50
2019-06-09T23:24:05.037Z,50
2019-06-09T23:25:07.124Z,50
2019-06-09T23:26:12.023Z,50
2019-06-09T23:27:14.094Z,50
2019-06-09T23:28:16.236Z,50
2019-06-09T23:29:26.333Z,50
2019-06-09T23:30:28.417Z,50
2019-06-09T23:31:31.887Z,50
2019-06-09T23:32:34.026Z,50
2019-06-09T23:33:36.449Z,50
2019-06-09T23:34:38.551Z,50
2019-06-09T23:35:42.787Z,50
2019-06-09T23:36:44.908Z,50
2019-06-09T23:37:47.084Z,50
2019-06-09T23:38:53.201Z,50
2019-06-09T23:39:57.100Z,50
2019-06-09T23:41:06.054Z,50
2019-06-09T23:42:08.419Z,50
2019-06-09T23:43:12.094Z,50
2019-06-09T23:44:14.178Z,50
2019-06-09T23:45:16.323Z,50
2019-06-09T23:46:18.439Z,50
2019-06-09T23:47:45.433Z,50
2019-06-09T23:48:47.481Z,50
2019-06-09T23:49:52.026Z,50